sensor_id;sensor_type;location;lat;lon;timestamp;P1;durP1;ratioP1;P2;durP2;ratioP2
52284;SDS011;38238;53.304;6.606;2023-02-28T00:00:11;13.65;;;12.35;;
52284;SDS011;38238;53.304;6.606;2023-02-28T00:02:39;12.02;;;11.02;;
52284;SDS011;38238;53.304;6.606;2023-02-28T00:05:06;13.93;;;12.95;;
52284;SDS011;38238;53.304;6.606;2023-02-28T00:07:32;13.38;;;12.27;;
52284;SDS011;38238;53.304;6.606;2023-02-28T00:09:59;14.65;;;13.45;;
52284;SDS011;38238;53.304;6.606;2023-02-28T00:12:25;11.68;;;10.70;;
52284;SDS011;38238;53.304;6.606;2023-02-28T00:14:51;14.90;;;13.50;;
52284;SDS011;38238;53.304;6.606;2023-02-28T00:17:17;13.82;;;12.52;;
52284;SDS011;38238;53.304;6.606;2023-02-28T00:19:46;12.77;;;11.68;;
52284;SDS011;38238;53.304;6.606;2023-02-28T00:22:13;12.98;;;11.77;;
52284;SDS011;38238;53.304;6.606;2023-02-28T00:24:40;12.70;;;11.70;;
52284;SDS011;38238;53.304;6.606;2023-02-28T00:27:05;12.85;;;11.85;;
52284;SDS011;38238;53.304;6.606;2023-02-28T00:29:31;15.18;;;12.48;;
52284;SDS011;38238;53.304;6.606;2023-02-28T00:31:57;11.85;;;10.80;;
52284;SDS011;38238;53.304;6.606;2023-02-28T00:34:22;11.80;;;10.80;;
52284;SDS011;38238;53.304;6.606;2023-02-28T00:36:48;12.45;;;11.48;;
52284;SDS011;38238;53.304;6.606;2023-02-28T00:39:14;13.35;;;10.98;;
52284;SDS011;38238;53.304;6.606;2023-02-28T00:41:40;11.77;;;10.77;;
52284;SDS011;38238;53.304;6.606;2023-02-28T00:44:05;11.35;;;10.13;;
52284;SDS011;38238;53.304;6.606;2023-02-28T00:46:31;11.52;;;10.45;;
52284;SDS011;38238;53.304;6.606;2023-02-28T00:48:57;12.25;;;11.32;;
52284;SDS011;38238;53.304;6.606;2023-02-28T00:51:23;11.40;;;10.30;;
52284;SDS011;38238;53.304;6.606;2023-02-28T00:53:49;13.25;;;12.32;;
52284;SDS011;38238;53.304;6.606;2023-02-28T00:56:14;12.02;;;10.98;;
52284;SDS011;38238;53.304;6.606;2023-02-28T00:58:40;11.90;;;10.95;;
52284;SDS011;38238;53.304;6.606;2023-02-28T01:01:06;19.50;;;12.50;;
52284;SDS011;38238;53.304;6.606;2023-02-28T01:03:32;13.18;;;12.18;;
52284;SDS011;38238;53.304;6.606;2023-02-28T01:05:58;13.63;;;12.55;;
52284;SDS011;38238;53.304;6.606;2023-02-28T01:08:24;13.07;;;12.18;;
52284;SDS011;38238;53.304;6.606;2023-02-28T01:10:51;13.00;;;11.80;;
52284;SDS011;38238;53.304;6.606;2023-02-28T01:13:17;14.68;;;13.52;;
52284;SDS011;38238;53.304;6.606;2023-02-28T01:15:45;14.45;;;13.27;;
52284;SDS011;38238;53.304;6.606;2023-02-28T01:18:15;14.43;;;13.23;;
52284;SDS011;38238;53.304;6.606;2023-02-28T01:20:40;14.75;;;13.70;;
52284;SDS011;38238;53.304;6.606;2023-02-28T01:23:06;15.55;;;14.40;;
52284;SDS011;38238;53.304;6.606;2023-02-28T01:25:34;15.60;;;14.25;;
52284;SDS011;38238;53.304;6.606;2023-02-28T01:28:00;13.90;;;12.70;;
52284;SDS011;38238;53.304;6.606;2023-02-28T01:30:26;13.90;;;13.00;;
52284;SDS011;38238;53.304;6.606;2023-02-28T01:32:52;12.25;;;11.13;;
52284;SDS011;38238;53.304;6.606;2023-02-28T01:35:18;13.77;;;12.68;;
52284;SDS011;38238;53.304;6.606;2023-02-28T01:37:45;11.38;;;10.50;;
52284;SDS011;38238;53.304;6.606;2023-02-28T01:40:11;11.50;;;10.20;;
52284;SDS011;38238;53.304;6.606;2023-02-28T01:42:37;11.13;;;10.23;;
52284;SDS011;38238;53.304;6.606;2023-02-28T01:45:05;14.23;;;13.20;;
52284;SDS011;38238;53.304;6.606;2023-02-28T01:47:51;11.88;;;10.93;;
52284;SDS011;38238;53.304;6.606;2023-02-28T01:50:21;13.27;;;12.27;;
52284;SDS011;38238;53.304;6.606;2023-02-28T01:52:50;12.95;;;11.85;;
52284;SDS011;38238;53.304;6.606;2023-02-28T01:55:19;13.18;;;12.15;;
52284;SDS011;38238;53.304;6.606;2023-02-28T01:57:50;13.57;;;12.48;;
52284;SDS011;38238;53.304;6.606;2023-02-28T02:00:20;12.93;;;11.93;;
52284;SDS011;38238;53.304;6.606;2023-02-28T02:02:50;13.60;;;12.13;;
52284;SDS011;38238;53.304;6.606;2023-02-28T02:05:19;12.85;;;10.90;;
52284;SDS011;38238;53.304;6.606;2023-02-28T02:07:48;11.88;;;10.85;;
52284;SDS011;38238;53.304;6.606;2023-02-28T02:10:18;12.13;;;11.20;;
52284;SDS011;38238;53.304;6.606;2023-02-28T02:13:08;11.57;;;10.68;;
52284;SDS011;38238;53.304;6.606;2023-02-28T02:18:24;12.77;;;11.77;;
52284;SDS011;38238;53.304;6.606;2023-02-28T02:24:03;13.83;;;12.70;;
52284;SDS011;38238;53.304;6.606;2023-02-28T02:34:47;14.02;;;13.00;;
52284;SDS011;38238;53.304;6.606;2023-02-28T02:37:41;16.83;;;15.25;;
52284;SDS011;38238;53.304;6.606;2023-02-28T02:40:23;16.52;;;15.52;;
52284;SDS011;38238;53.304;6.606;2023-02-28T02:45:39;22.38;;;20.58;;
52284;SDS011;38238;53.304;6.606;2023-02-28T02:48:17;20.50;;;18.80;;
52284;SDS011;38238;53.304;6.606;2023-02-28T02:50:48;22.42;;;21.05;;
52284;SDS011;38238;53.304;6.606;2023-02-28T02:53:18;23.02;;;21.70;;
52284;SDS011;38238;53.304;6.606;2023-02-28T02:55:48;23.50;;;22.15;;
52284;SDS011;38238;53.304;6.606;2023-02-28T02:58:20;24.60;;;23.15;;
52284;SDS011;38238;53.304;6.606;2023-02-28T03:00:51;23.20;;;21.80;;
52284;SDS011;38238;53.304;6.606;2023-02-28T03:03:23;22.75;;;21.23;;
52284;SDS011;38238;53.304;6.606;2023-02-28T03:05:55;26.05;;;24.35;;
52284;SDS011;38238;53.304;6.606;2023-02-28T03:08:22;22.35;;;21.05;;
52284;SDS011;38238;53.304;6.606;2023-02-28T03:10:48;21.40;;;20.00;;
52284;SDS011;38238;53.304;6.606;2023-02-28T03:26:44;19.88;;;18.67;;
52284;SDS011;38238;53.304;6.606;2023-02-28T03:29:17;21.33;;;20.27;;
52284;SDS011;38238;53.304;6.606;2023-02-28T03:31:52;20.55;;;19.30;;
52284;SDS011;38238;53.304;6.606;2023-02-28T03:34:29;19.92;;;18.77;;
52284;SDS011;38238;53.304;6.606;2023-02-28T03:37:01;20.23;;;19.02;;
52284;SDS011;38238;53.304;6.606;2023-02-28T03:39:39;19.83;;;18.42;;
52284;SDS011;38238;53.304;6.606;2023-02-28T03:42:15;19.85;;;18.45;;
52284;SDS011;38238;53.304;6.606;2023-02-28T03:45:00;22.58;;;21.17;;
52284;SDS011;38238;53.304;6.606;2023-02-28T03:47:34;18.80;;;17.77;;
52284;SDS011;38238;53.304;6.606;2023-02-28T03:50:09;20.02;;;18.83;;
52284;SDS011;38238;53.304;6.606;2023-02-28T03:53:10;22.33;;;21.10;;
52284;SDS011;38238;53.304;6.606;2023-02-28T03:55:40;23.55;;;22.08;;
52284;SDS011;38238;53.304;6.606;2023-02-28T03:58:16;21.67;;;20.52;;
52284;SDS011;38238;53.304;6.606;2023-02-28T04:01:03;23.73;;;22.40;;
52284;SDS011;38238;53.304;6.606;2023-02-28T04:03:34;25.83;;;24.08;;
52284;SDS011;38238;53.304;6.606;2023-02-28T04:06:02;27.88;;;26.27;;
52284;SDS011;38238;53.304;6.606;2023-02-28T04:08:29;28.92;;;26.98;;
52284;SDS011;38238;53.304;6.606;2023-02-28T04:11:01;27.67;;;25.95;;
52284;SDS011;38238;53.304;6.606;2023-02-28T04:13:32;30.13;;;28.33;;
52284;SDS011;38238;53.304;6.606;2023-02-28T04:15:58;28.38;;;26.48;;
52284;SDS011;38238;53.304;6.606;2023-02-28T04:18:23;29.50;;;27.70;;
52284;SDS011;38238;53.304;6.606;2023-02-28T04:20:49;26.95;;;25.30;;
52284;SDS011;38238;53.304;6.606;2023-02-28T04:23:15;27.15;;;25.38;;
52284;SDS011;38238;53.304;6.606;2023-02-28T04:25:41;25.33;;;23.40;;
52284;SDS011;38238;53.304;6.606;2023-02-28T04:28:06;29.40;;;27.42;;
52284;SDS011;38238;53.304;6.606;2023-02-28T04:30:32;29.30;;;27.40;;
52284;SDS011;38238;53.304;6.606;2023-02-28T04:32:58;28.63;;;26.83;;
52284;SDS011;38238;53.304;6.606;2023-02-28T04:35:24;29.95;;;28.15;;
52284;SDS011;38238;53.304;6.606;2023-02-28T04:37:50;25.35;;;23.65;;
52284;SDS011;38238;53.304;6.606;2023-02-28T04:40:16;26.50;;;24.50;;
52284;SDS011;38238;53.304;6.606;2023-02-28T04:42:41;25.10;;;23.50;;
52284;SDS011;38238;53.304;6.606;2023-02-28T04:45:07;28.40;;;26.63;;
52284;SDS011;38238;53.304;6.606;2023-02-28T04:47:35;25.52;;;23.92;;
52284;SDS011;38238;53.304;6.606;2023-02-28T04:50:01;23.88;;;22.35;;
52284;SDS011;38238;53.304;6.606;2023-02-28T04:52:28;28.63;;;26.90;;
52284;SDS011;38238;53.304;6.606;2023-02-28T04:54:54;26.15;;;24.75;;
52284;SDS011;38238;53.304;6.606;2023-02-28T04:57:20;29.23;;;27.73;;
52284;SDS011;38238;53.304;6.606;2023-02-28T04:59:46;28.25;;;26.73;;
52284;SDS011;38238;53.304;6.606;2023-02-28T05:02:11;26.20;;;24.55;;
52284;SDS011;38238;53.304;6.606;2023-02-28T05:04:37;23.25;;;21.90;;
52284;SDS011;38238;53.304;6.606;2023-02-28T05:07:03;22.35;;;21.15;;
52284;SDS011;38238;53.304;6.606;2023-02-28T05:09:29;26.02;;;24.70;;
52284;SDS011;38238;53.304;6.606;2023-02-28T05:11:55;24.20;;;22.90;;
52284;SDS011;38238;53.304;6.606;2023-02-28T05:14:21;24.70;;;23.15;;
52284;SDS011;38238;53.304;6.606;2023-02-28T05:16:47;27.08;;;25.58;;
52284;SDS011;38238;53.304;6.606;2023-02-28T05:19:12;27.50;;;25.90;;
52284;SDS011;38238;53.304;6.606;2023-02-28T05:21:39;18.80;;;17.60;;
52284;SDS011;38238;53.304;6.606;2023-02-28T05:24:07;18.88;;;17.80;;
52284;SDS011;38238;53.304;6.606;2023-02-28T05:26:39;23.50;;;22.15;;
52284;SDS011;38238;53.304;6.606;2023-02-28T05:29:06;23.58;;;22.17;;
52284;SDS011;38238;53.304;6.606;2023-02-28T05:31:32;27.17;;;25.65;;
52284;SDS011;38238;53.304;6.606;2023-02-28T05:33:58;24.40;;;22.92;;
52284;SDS011;38238;53.304;6.606;2023-02-28T05:36:24;22.95;;;21.60;;
52284;SDS011;38238;53.304;6.606;2023-02-28T05:38:50;23.13;;;21.95;;
52284;SDS011;38238;53.304;6.606;2023-02-28T05:41:16;21.92;;;20.63;;
52284;SDS011;38238;53.304;6.606;2023-02-28T05:43:44;19.75;;;18.65;;
52284;SDS011;38238;53.304;6.606;2023-02-28T05:46:10;18.55;;;17.45;;
52284;SDS011;38238;53.304;6.606;2023-02-28T05:48:38;22.67;;;21.48;;
52284;SDS011;38238;53.304;6.606;2023-02-28T05:51:05;17.73;;;16.70;;
52284;SDS011;38238;53.304;6.606;2023-02-28T05:53:31;20.88;;;19.77;;
52284;SDS011;38238;53.304;6.606;2023-02-28T05:55:57;23.13;;;21.70;;
52284;SDS011;38238;53.304;6.606;2023-02-28T05:58:23;20.52;;;19.42;;
52284;SDS011;38238;53.304;6.606;2023-02-28T06:00:50;24.25;;;22.98;;
52284;SDS011;38238;53.304;6.606;2023-02-28T06:03:16;25.48;;;24.02;;
52284;SDS011;38238;53.304;6.606;2023-02-28T06:05:42;23.40;;;21.77;;
52284;SDS011;38238;53.304;6.606;2023-02-28T06:08:08;26.15;;;24.75;;
52284;SDS011;38238;53.304;6.606;2023-02-28T06:10:34;27.80;;;26.40;;
52284;SDS011;38238;53.304;6.606;2023-02-28T06:13:00;25.10;;;23.60;;
52284;SDS011;38238;53.304;6.606;2023-02-28T06:15:27;18.17;;;17.05;;
52284;SDS011;38238;53.304;6.606;2023-02-28T06:17:54;21.20;;;19.92;;
52284;SDS011;38238;53.304;6.606;2023-02-28T06:20:23;19.50;;;18.33;;
52284;SDS011;38238;53.304;6.606;2023-02-28T06:22:51;22.77;;;21.50;;
52284;SDS011;38238;53.304;6.606;2023-02-28T06:25:19;22.13;;;20.73;;
52284;SDS011;38238;53.304;6.606;2023-02-28T06:27:45;23.52;;;22.02;;
52284;SDS011;38238;53.304;6.606;2023-02-28T06:30:11;27.92;;;26.17;;
52284;SDS011;38238;53.304;6.606;2023-02-28T06:32:37;23.33;;;21.98;;
52284;SDS011;38238;53.304;6.606;2023-02-28T06:35:03;25.13;;;23.65;;
52284;SDS011;38238;53.304;6.606;2023-02-28T06:37:30;26.50;;;24.92;;
52284;SDS011;38238;53.304;6.606;2023-02-28T06:39:56;21.95;;;20.45;;
52284;SDS011;38238;53.304;6.606;2023-02-28T06:42:23;20.05;;;18.52;;
52284;SDS011;38238;53.304;6.606;2023-02-28T06:44:54;25.27;;;23.65;;
52284;SDS011;38238;53.304;6.606;2023-02-28T06:47:21;23.85;;;22.35;;
52284;SDS011;38238;53.304;6.606;2023-02-28T06:49:47;21.48;;;19.83;;
52284;SDS011;38238;53.304;6.606;2023-02-28T06:52:13;22.23;;;20.63;;
52284;SDS011;38238;53.304;6.606;2023-02-28T06:54:40;19.25;;;17.95;;
52284;SDS011;38238;53.304;6.606;2023-02-28T06:57:06;21.50;;;20.10;;
52284;SDS011;38238;53.304;6.606;2023-02-28T06:59:31;23.52;;;21.88;;
52284;SDS011;38238;53.304;6.606;2023-02-28T07:01:57;20.35;;;18.90;;
52284;SDS011;38238;53.304;6.606;2023-02-28T07:04:23;20.48;;;18.85;;
52284;SDS011;38238;53.304;6.606;2023-02-28T07:06:49;20.35;;;18.85;;
52284;SDS011;38238;53.304;6.606;2023-02-28T07:09:15;17.38;;;15.98;;
52284;SDS011;38238;53.304;6.606;2023-02-28T07:11:40;18.70;;;17.00;;
52284;SDS011;38238;53.304;6.606;2023-02-28T07:14:08;20.13;;;18.60;;
52284;SDS011;38238;53.304;6.606;2023-02-28T07:16:35;18.45;;;17.00;;
52284;SDS011;38238;53.304;6.606;2023-02-28T07:19:00;26.25;;;24.58;;
52284;SDS011;38238;53.304;6.606;2023-02-28T07:21:26;23.48;;;21.77;;
52284;SDS011;38238;53.304;6.606;2023-02-28T07:23:52;24.58;;;22.73;;
52284;SDS011;38238;53.304;6.606;2023-02-28T07:26:18;22.50;;;20.80;;
52284;SDS011;38238;53.304;6.606;2023-02-28T07:28:46;26.33;;;24.48;;
52284;SDS011;38238;53.304;6.606;2023-02-28T07:31:13;23.65;;;21.85;;
52284;SDS011;38238;53.304;6.606;2023-02-28T07:33:39;22.10;;;20.27;;
52284;SDS011;38238;53.304;6.606;2023-02-28T07:36:06;25.95;;;24.02;;
52284;SDS011;38238;53.304;6.606;2023-02-28T07:38:35;26.40;;;24.45;;
52284;SDS011;38238;53.304;6.606;2023-02-28T07:41:02;24.38;;;22.48;;
52284;SDS011;38238;53.304;6.606;2023-02-28T07:43:31;24.67;;;23.00;;
52284;SDS011;38238;53.304;6.606;2023-02-28T07:46:01;22.63;;;20.65;;
52284;SDS011;38238;53.304;6.606;2023-02-28T07:48:31;22.95;;;21.25;;
52284;SDS011;38238;53.304;6.606;2023-02-28T07:50:57;26.33;;;24.60;;
52284;SDS011;38238;53.304;6.606;2023-02-28T07:53:24;28.23;;;26.42;;
52284;SDS011;38238;53.304;6.606;2023-02-28T07:55:49;23.27;;;21.35;;
52284;SDS011;38238;53.304;6.606;2023-02-28T07:58:15;27.15;;;25.30;;
52284;SDS011;38238;53.304;6.606;2023-02-28T08:00:41;26.60;;;24.70;;
52284;SDS011;38238;53.304;6.606;2023-02-28T08:03:08;32.97;;;30.73;;
52284;SDS011;38238;53.304;6.606;2023-02-28T08:05:41;24.38;;;22.67;;
52284;SDS011;38238;53.304;6.606;2023-02-28T08:08:07;29.90;;;27.95;;
52284;SDS011;38238;53.304;6.606;2023-02-28T08:10:33;24.38;;;22.65;;
52284;SDS011;38238;53.304;6.606;2023-02-28T08:12:59;29.88;;;27.85;;
52284;SDS011;38238;53.304;6.606;2023-02-28T08:15:25;24.15;;;22.48;;
52284;SDS011;38238;53.304;6.606;2023-02-28T08:17:51;29.08;;;27.05;;
52284;SDS011;38238;53.304;6.606;2023-02-28T08:20:17;27.40;;;25.30;;
52284;SDS011;38238;53.304;6.606;2023-02-28T08:22:43;25.15;;;23.33;;
52284;SDS011;38238;53.304;6.606;2023-02-28T08:25:09;27.08;;;25.02;;
52284;SDS011;38238;53.304;6.606;2023-02-28T08:27:35;23.80;;;21.98;;
52284;SDS011;38238;53.304;6.606;2023-02-28T08:30:02;25.92;;;23.83;;
52284;SDS011;38238;53.304;6.606;2023-02-28T08:32:28;25.02;;;23.02;;
52284;SDS011;38238;53.304;6.606;2023-02-28T08:34:54;29.17;;;26.98;;
52284;SDS011;38238;53.304;6.606;2023-02-28T08:37:20;30.83;;;28.55;;
52284;SDS011;38238;53.304;6.606;2023-02-28T08:39:45;36.50;;;33.88;;
52284;SDS011;38238;53.304;6.606;2023-02-28T08:42:11;33.35;;;31.25;;
52284;SDS011;38238;53.304;6.606;2023-02-28T08:44:37;41.80;;;39.13;;
52284;SDS011;38238;53.304;6.606;2023-02-28T08:47:03;38.00;;;35.65;;
52284;SDS011;38238;53.304;6.606;2023-02-28T08:49:28;40.75;;;38.30;;
52284;SDS011;38238;53.304;6.606;2023-02-28T08:51:54;33.95;;;31.88;;
52284;SDS011;38238;53.304;6.606;2023-02-28T08:54:22;30.23;;;28.33;;
52284;SDS011;38238;53.304;6.606;2023-02-28T08:56:48;32.47;;;30.40;;
52284;SDS011;38238;53.304;6.606;2023-02-28T08:59:14;32.35;;;30.25;;
52284;SDS011;38238;53.304;6.606;2023-02-28T09:01:40;30.27;;;28.23;;
52284;SDS011;38238;53.304;6.606;2023-02-28T09:04:07;34.65;;;32.53;;
52284;SDS011;38238;53.304;6.606;2023-02-28T09:06:34;33.60;;;31.40;;
52284;SDS011;38238;53.304;6.606;2023-02-28T09:09:00;33.90;;;31.75;;
52284;SDS011;38238;53.304;6.606;2023-02-28T09:11:27;32.40;;;30.20;;
52284;SDS011;38238;53.304;6.606;2023-02-28T09:13:53;35.05;;;32.90;;
52284;SDS011;38238;53.304;6.606;2023-02-28T09:16:20;32.92;;;31.05;;
52284;SDS011;38238;53.304;6.606;2023-02-28T09:18:46;32.10;;;30.35;;
52284;SDS011;38238;53.304;6.606;2023-02-28T09:21:14;36.97;;;34.83;;
52284;SDS011;38238;53.304;6.606;2023-02-28T09:23:41;35.70;;;33.22;;
52284;SDS011;38238;53.304;6.606;2023-02-28T09:26:08;31.75;;;29.70;;
52284;SDS011;38238;53.304;6.606;2023-02-28T09:28:39;34.67;;;32.72;;
52284;SDS011;38238;53.304;6.606;2023-02-28T09:31:05;28.00;;;25.77;;
52284;SDS011;38238;53.304;6.606;2023-02-28T09:33:30;29.77;;;27.83;;
52284;SDS011;38238;53.304;6.606;2023-02-28T09:36:00;26.58;;;24.60;;
52284;SDS011;38238;53.304;6.606;2023-02-28T09:38:27;23.92;;;22.10;;
52284;SDS011;38238;53.304;6.606;2023-02-28T09:40:55;23.27;;;21.45;;
52284;SDS011;38238;53.304;6.606;2023-02-28T09:43:30;25.15;;;22.92;;
52284;SDS011;38238;53.304;6.606;2023-02-28T09:46:08;22.75;;;21.17;;
52284;SDS011;38238;53.304;6.606;2023-02-28T09:48:45;21.42;;;19.48;;
52284;SDS011;38238;53.304;6.606;2023-02-28T09:54:21;18.52;;;16.90;;
52284;SDS011;38238;53.304;6.606;2023-02-28T09:56:49;16.35;;;14.27;;
52284;SDS011;38238;53.304;6.606;2023-02-28T09:59:25;17.70;;;13.30;;
52284;SDS011;38238;53.304;6.606;2023-02-28T10:02:02;15.68;;;12.82;;
52284;SDS011;38238;53.304;6.606;2023-02-28T10:12:53;16.25;;;13.70;;
52284;SDS011;38238;53.304;6.606;2023-02-28T10:15:21;14.38;;;11.52;;
52284;SDS011;38238;53.304;6.606;2023-02-28T10:17:53;14.95;;;10.65;;
52284;SDS011;38238;53.304;6.606;2023-02-28T10:20:23;13.15;;;11.23;;
52284;SDS011;38238;53.304;6.606;2023-02-28T10:25:59;14.90;;;13.30;;
52284;SDS011;38238;53.304;6.606;2023-02-28T10:28:30;15.10;;;13.73;;
52284;SDS011;38238;53.304;6.606;2023-02-28T10:30:56;14.05;;;12.85;;
52284;SDS011;38238;53.304;6.606;2023-02-28T10:35:52;13.77;;;12.38;;
52284;SDS011;38238;53.304;6.606;2023-02-28T10:38:23;14.05;;;12.48;;
52284;SDS011;38238;53.304;6.606;2023-02-28T10:40:51;13.60;;;12.02;;
52284;SDS011;38238;53.304;6.606;2023-02-28T10:43:28;14.45;;;13.05;;
52284;SDS011;38238;53.304;6.606;2023-02-28T10:45:57;11.88;;;9.57;;
52284;SDS011;38238;53.304;6.606;2023-02-28T10:48:34;11.10;;;9.82;;
52284;SDS011;38238;53.304;6.606;2023-02-28T10:51:07;11.55;;;9.48;;
52284;SDS011;38238;53.304;6.606;2023-02-28T10:56:18;8.75;;;7.53;;
52284;SDS011;38238;53.304;6.606;2023-02-28T10:59:00;12.52;;;8.55;;
52284;SDS011;38238;53.304;6.606;2023-02-28T11:03:57;10.38;;;7.93;;
52284;SDS011;38238;53.304;6.606;2023-02-28T11:06:24;12.05;;;7.20;;
52284;SDS011;38238;53.304;6.606;2023-02-28T11:08:56;10.07;;;7.25;;
52284;SDS011;38238;53.304;6.606;2023-02-28T11:11:25;10.30;;;7.78;;
52284;SDS011;38238;53.304;6.606;2023-02-28T11:13:54;8.82;;;6.85;;
52284;SDS011;38238;53.304;6.606;2023-02-28T11:16:31;12.10;;;7.75;;
52284;SDS011;38238;53.304;6.606;2023-02-28T11:19:03;8.90;;;6.85;;
52284;SDS011;38238;53.304;6.606;2023-02-28T11:21:34;9.07;;;7.20;;
52284;SDS011;38238;53.304;6.606;2023-02-28T11:26:49;9.13;;;7.47;;
52284;SDS011;38238;53.304;6.606;2023-02-28T11:29:20;9.43;;;7.82;;
52284;SDS011;38238;53.304;6.606;2023-02-28T11:34:39;9.55;;;8.00;;
52284;SDS011;38238;53.304;6.606;2023-02-28T11:37:09;9.38;;;7.32;;
52284;SDS011;38238;53.304;6.606;2023-02-28T11:39:43;8.38;;;7.03;;
52284;SDS011;38238;53.304;6.606;2023-02-28T11:42:21;8.73;;;6.80;;
52284;SDS011;38238;53.304;6.606;2023-02-28T11:51:13;8.27;;;6.40;;
52284;SDS011;38238;53.304;6.606;2023-02-28T11:53:48;7.67;;;6.00;;
52284;SDS011;38238;53.304;6.606;2023-02-28T11:56:44;8.73;;;6.10;;
52284;SDS011;38238;53.304;6.606;2023-02-28T12:21:52;7.55;;;5.90;;
52284;SDS011;38238;53.304;6.606;2023-02-28T12:27:11;11.95;;;7.10;;
52284;SDS011;38238;53.304;6.606;2023-02-28T12:29:49;8.25;;;6.55;;
52284;SDS011;38238;53.304;6.606;2023-02-28T12:32:26;9.93;;;7.28;;
52284;SDS011;38238;53.304;6.606;2023-02-28T12:37:36;10.05;;;6.82;;
52284;SDS011;38238;53.304;6.606;2023-02-28T12:40:13;9.68;;;6.80;;
52284;SDS011;38238;53.304;6.606;2023-02-28T12:42:44;9.48;;;6.90;;
52284;SDS011;38238;53.304;6.606;2023-02-28T12:45:24;9.45;;;6.95;;
52284;SDS011;38238;53.304;6.606;2023-02-28T12:47:55;10.90;;;7.18;;
52284;SDS011;38238;53.304;6.606;2023-02-28T12:50:25;7.80;;;7.00;;
52284;SDS011;38238;53.304;6.606;2023-02-28T12:53:03;8.93;;;6.53;;
52284;SDS011;38238;53.304;6.606;2023-02-28T12:58:20;8.27;;;6.95;;
52284;SDS011;38238;53.304;6.606;2023-02-28T13:01:05;7.68;;;6.63;;
52284;SDS011;38238;53.304;6.606;2023-02-28T13:09:14;9.43;;;7.45;;
52284;SDS011;38238;53.304;6.606;2023-02-28T13:11:42;8.35;;;6.80;;
52284;SDS011;38238;53.304;6.606;2023-02-28T13:14:20;9.57;;;6.50;;
52284;SDS011;38238;53.304;6.606;2023-02-28T13:19:34;8.32;;;7.00;;
52284;SDS011;38238;53.304;6.606;2023-02-28T13:22:04;7.53;;;6.57;;
52284;SDS011;38238;53.304;6.606;2023-02-28T13:29:31;8.85;;;7.35;;
52284;SDS011;38238;53.304;6.606;2023-02-28T13:34:31;8.68;;;6.97;;
52284;SDS011;38238;53.304;6.606;2023-02-28T13:47:40;7.70;;;6.43;;
52284;SDS011;38238;53.304;6.606;2023-02-28T13:52:57;9.23;;;7.05;;
52284;SDS011;38238;53.304;6.606;2023-02-28T13:58:15;9.63;;;6.78;;
52284;SDS011;38238;53.304;6.606;2023-02-28T14:03:51;9.00;;;6.80;;
52284;SDS011;38238;53.304;6.606;2023-02-28T14:06:51;8.90;;;7.32;;
52284;SDS011;38238;53.304;6.606;2023-02-28T14:09:36;8.40;;;6.95;;
52284;SDS011;38238;53.304;6.606;2023-02-28T14:18:01;13.18;;;8.50;;
52284;SDS011;38238;53.304;6.606;2023-02-28T14:20:31;8.27;;;7.00;;
52284;SDS011;38238;53.304;6.606;2023-02-28T14:23:16;10.68;;;7.72;;
52284;SDS011;38238;53.304;6.606;2023-02-28T14:28:56;9.27;;;7.18;;
52284;SDS011;38238;53.304;6.606;2023-02-28T14:31:50;8.68;;;7.72;;
52284;SDS011;38238;53.304;6.606;2023-02-28T14:37:09;11.98;;;7.38;;
52284;SDS011;38238;53.304;6.606;2023-02-28T14:39:41;9.25;;;7.63;;
52284;SDS011;38238;53.304;6.606;2023-02-28T14:44:58;11.18;;;8.68;;
52284;SDS011;38238;53.304;6.606;2023-02-28T14:47:25;10.18;;;8.05;;
52284;SDS011;38238;53.304;6.606;2023-02-28T14:49:58;8.73;;;7.80;;
52284;SDS011;38238;53.304;6.606;2023-02-28T14:52:25;8.20;;;7.40;;
52284;SDS011;38238;53.304;6.606;2023-02-28T14:55:00;9.18;;;6.80;;
52284;SDS011;38238;53.304;6.606;2023-02-28T14:57:33;9.77;;;7.05;;
52284;SDS011;38238;53.304;6.606;2023-02-28T15:00:47;8.55;;;6.65;;
52284;SDS011;38238;53.304;6.606;2023-02-28T15:02:58;10.13;;;8.13;;
52284;SDS011;38238;53.304;6.606;2023-02-28T15:05:29;9.52;;;7.13;;
52284;SDS011;38238;53.304;6.606;2023-02-28T15:08:04;7.15;;;6.30;;
52284;SDS011;38238;53.304;6.606;2023-02-28T15:10:37;10.20;;;6.25;;
52284;SDS011;38238;53.304;6.606;2023-02-28T15:13:05;8.27;;;5.85;;
52284;SDS011;38238;53.304;6.606;2023-02-28T15:15:47;8.27;;;6.15;;
52284;SDS011;38238;53.304;6.606;2023-02-28T15:21:16;6.80;;;5.50;;
52284;SDS011;38238;53.304;6.606;2023-02-28T15:23:46;8.32;;;5.97;;
52284;SDS011;38238;53.304;6.606;2023-02-28T15:26:22;6.85;;;5.78;;
52284;SDS011;38238;53.304;6.606;2023-02-28T15:29:01;7.72;;;5.45;;
52284;SDS011;38238;53.304;6.606;2023-02-28T15:31:40;8.93;;;6.90;;
52284;SDS011;38238;53.304;6.606;2023-02-28T15:34:21;7.22;;;6.32;;
52284;SDS011;38238;53.304;6.606;2023-02-28T15:36:51;7.13;;;6.18;;
52284;SDS011;38238;53.304;6.606;2023-02-28T15:39:24;7.50;;;6.28;;
52284;SDS011;38238;53.304;6.606;2023-02-28T15:42:10;9.60;;;6.40;;
52284;SDS011;38238;53.304;6.606;2023-02-28T15:44:37;8.20;;;6.07;;
52284;SDS011;38238;53.304;6.606;2023-02-28T15:52:43;7.38;;;6.03;;
52284;SDS011;38238;53.304;6.606;2023-02-28T15:55:10;8.55;;;6.90;;
52284;SDS011;38238;53.304;6.606;2023-02-28T15:57:38;8.43;;;6.78;;
52284;SDS011;38238;53.304;6.606;2023-02-28T16:00:05;8.10;;;6.20;;
52284;SDS011;38238;53.304;6.606;2023-02-28T16:02:38;8.63;;;6.35;;
52284;SDS011;38238;53.304;6.606;2023-02-28T16:07:34;9.02;;;6.72;;
52284;SDS011;38238;53.304;6.606;2023-02-28T16:10:01;9.25;;;6.90;;
52284;SDS011;38238;53.304;6.606;2023-02-28T16:12:28;10.25;;;6.75;;
52284;SDS011;38238;53.304;6.606;2023-02-28T16:14:56;7.53;;;6.72;;
52284;SDS011;38238;53.304;6.606;2023-02-28T16:17:27;10.98;;;5.95;;
52284;SDS011;38238;53.304;6.606;2023-02-28T16:19:55;10.23;;;6.20;;
52284;SDS011;38238;53.304;6.606;2023-02-28T16:22:21;7.78;;;5.70;;
52284;SDS011;38238;53.304;6.606;2023-02-28T16:24:47;7.55;;;6.45;;
52284;SDS011;38238;53.304;6.606;2023-02-28T16:27:25;8.57;;;6.70;;
52284;SDS011;38238;53.304;6.606;2023-02-28T16:29:55;8.95;;;6.00;;
52284;SDS011;38238;53.304;6.606;2023-02-28T16:32:21;9.13;;;6.25;;
52284;SDS011;38238;53.304;6.606;2023-02-28T16:34:47;7.75;;;6.38;;
52284;SDS011;38238;53.304;6.606;2023-02-28T16:37:14;8.45;;;5.90;;
52284;SDS011;38238;53.304;6.606;2023-02-28T16:39:42;7.20;;;6.32;;
52284;SDS011;38238;53.304;6.606;2023-02-28T16:42:21;8.15;;;6.38;;
52284;SDS011;38238;53.304;6.606;2023-02-28T16:44:50;7.18;;;6.47;;
52284;SDS011;38238;53.304;6.606;2023-02-28T16:47:17;11.43;;;7.07;;
52284;SDS011;38238;53.304;6.606;2023-02-28T16:49:43;8.35;;;7.05;;
52284;SDS011;38238;53.304;6.606;2023-02-28T16:52:11;7.72;;;6.47;;
52284;SDS011;38238;53.304;6.606;2023-02-28T16:54:38;7.60;;;6.72;;
52284;SDS011;38238;53.304;6.606;2023-02-28T16:57:04;13.57;;;8.05;;
52284;SDS011;38238;53.304;6.606;2023-02-28T16:59:31;10.50;;;7.85;;
52284;SDS011;38238;53.304;6.606;2023-02-28T17:01:57;10.55;;;8.25;;
52284;SDS011;38238;53.304;6.606;2023-02-28T17:04:24;10.02;;;8.80;;
52284;SDS011;38238;53.304;6.606;2023-02-28T17:06:51;9.85;;;7.90;;
52284;SDS011;38238;53.304;6.606;2023-02-28T17:09:18;9.10;;;8.13;;
52284;SDS011;38238;53.304;6.606;2023-02-28T17:11:45;14.45;;;8.57;;
52284;SDS011;38238;53.304;6.606;2023-02-28T17:14:12;12.50;;;9.25;;
52284;SDS011;38238;53.304;6.606;2023-02-28T17:16:38;11.65;;;9.18;;